Time;durP1;ratioP1;P1;durP2;ratioP2;P2;SDS_P1;SDS_P2;PMS_P1;PMS_P2;Temp;Humidity;BMP_temperature;BMP_pressure;BME280_temperature;BME280_humidity;BME280_pressure;Samples;Min_cycle;Max_cycle;Signal;HPM_P1;HPM_P2
2021/06/09 00:02:07;;;;;;;4.50;3.60;;;;;;;12.95;74.92;95753.08;1787200;80;21066;-60
2021/06/09 00:04:33;;;;;;;4.40;3.60;;;;;;;12.89;74.93;95753.25;1787361;80;21491;-60
2021/06/09 00:07:00;;;;;;;4.50;3.77;;;;;;;12.91;74.89;95752.30;1787531;80;21001;-60
2021/06/09 00:09:27;;;;;;;4.50;3.57;;;;;;;12.95;74.57;95754.41;1787749;80;21056;-60
2021/06/09 00:11:53;;;;;;;5.43;3.70;;;;;;;12.98;74.98;95758.33;1788081;80;21424;-60
2021/06/09 00:14:21;;;;;;;12.37;5.90;;;;;;;12.94;75.22;95754.00;1787440;80;21057;-60
2021/06/09 00:16:47;;;;;;;5.60;3.47;;;;;;;12.91;75.74;95756.27;1787502;80;21271;-60
2021/06/09 00:19:15;;;;;;;4.40;4.00;;;;;;;12.89;76.14;95743.52;1787751;80;21444;-60
2021/06/09 00:21:47;;;;;;;6.23;3.90;;;;;;;12.87;75.16;95741.81;1752339;80;21021;-60
2021/06/09 00:24:10;;;;;;;7.27;4.23;;;;;;;12.89;75.20;95742.20;1787148;80;21124;-60
2021/06/09 00:26:37;;;;;;;5.60;3.73;;;;;;;12.87;75.24;95737.84;1787504;80;20993;-59
2021/06/09 00:29:03;;;;;;;3.73;3.33;;;;;;;12.81;74.63;95741.53;1787612;80;21017;-60
2021/06/09 00:31:30;;;;;;;4.83;3.80;;;;;;;12.85;75.11;95743.20;1787848;80;21510;-60
2021/06/09 00:33:56;;;;;;;5.80;4.03;;;;;;;12.87;75.06;95737.39;1787712;80;21058;-60
2021/06/09 00:36:23;;;;;;;7.03;4.03;;;;;;;12.87;75.01;95740.50;1787802;80;21053;-60
2021/06/09 00:38:50;;;;;;;4.03;3.63;;;;;;;12.86;74.93;95740.95;1787794;80;21049;-59
2021/06/09 00:41:16;;;;;;;6.37;3.80;;;;;;;12.87;74.84;95740.03;1787721;80;21053;-60
2021/06/09 00:43:43;;;;;;;5.03;3.90;;;;;;;12.91;74.86;95739.52;1795357;80;21108;-60
2021/06/09 00:46:11;;;;;;;5.93;3.70;;;;;;;12.90;74.42;95738.66;1796331;79;20973;-60
2021/06/09 00:48:41;;;;;;;5.27;3.77;;;;;;;12.83;74.95;95741.04;1796065;80;21013;-60
2021/06/09 00:51:17;;;;;;;3.67;3.33;;;;;;;12.73;75.39;95739.07;1796415;80;21000;-60
2021/06/09 00:53:52;;;;;;;6.13;4.50;;;;;;;12.61;74.93;95734.53;1796364;80;21458;-60
2021/06/09 00:56:22;;;;;;;5.67;4.20;;;;;;;12.50;75.22;95740.09;1796608;79;21419;-60
2021/06/09 00:58:50;;;;;;;4.50;3.60;;;;;;;12.46;76.21;95737.95;1796852;80;20997;-60
2021/06/09 01:01:21;;;;;;;6.37;3.57;;;;;;;12.50;75.35;95734.34;1796313;80;21020;-60
2021/06/09 01:03:48;;;;;;;7.40;5.27;;;;;;;12.53;75.43;95736.04;1796200;80;21486;-59
2021/06/09 01:06:15;;;;;;;7.80;5.40;;;;;;;12.44;76.19;95738.89;1796410;80;20974;-60
2021/06/09 01:08:43;;;;;;;9.83;5.40;;;;;;;12.34;76.17;95739.09;1796377;80;21065;-60
2021/06/09 01:11:15;;;;;;;7.67;4.20;;;;;;;12.32;76.33;95743.58;1796449;80;21009;-60
2021/06/09 01:13:42;;;;;;;5.27;3.77;;;;;;;12.31;76.26;95735.20;1796473;80;20993;-60
2021/06/09 01:16:09;;;;;;;5.90;4.23;;;;;;;12.30;75.93;95727.33;1796338;80;21024;-60
2021/06/09 01:18:37;;;;;;;5.17;4.17;;;;;;;12.31;75.73;95725.08;1795935;80;21514;-60
2021/06/09 01:21:05;;;;;;;6.37;4.33;;;;;;;12.31;76.21;95719.80;1796214;80;21009;-60
2021/06/09 01:23:33;;;;;;;5.90;4.30;;;;;;;12.26;76.98;95720.35;1796260;80;21005;-60
2021/06/09 01:26:01;;;;;;;8.33;3.67;;;;;;;12.20;76.70;95714.76;1796481;80;21527;-60
2021/06/09 01:28:27;;;;;;;5.00;3.60;;;;;;;12.18;76.58;95718.34;1796274;80;20950;-60
2021/06/09 01:30:56;;;;;;;4.50;3.57;;;;;;;12.10;75.53;95715.41;1796370;80;21017;-60
2021/06/09 01:33:24;;;;;;;5.47;3.97;;;;;;;11.97;76.49;95710.42;1796227;80;20973;-59
2021/06/09 01:35:54;;;;;;;5.60;4.00;;;;;;;11.90;76.59;95710.56;1796396;80;20989;-60
2021/06/09 01:38:22;;;;;;;5.10;3.73;;;;;;;11.90;77.65;95707.92;1796506;79;21451;-59
2021/06/09 01:40:50;;;;;;;6.37;4.03;;;;;;;11.87;77.37;95706.67;1796418;80;21005;-60
2021/06/09 01:43:18;;;;;;;6.00;4.03;;;;;;;11.77;77.76;95698.92;1790992;80;21026;-60
2021/06/09 01:45:44;;;;;;;6.23;4.00;;;;;;;11.70;78.14;95700.84;1787435;80;21021;-60
2021/06/09 01:48:12;;;;;;;4.37;3.80;;;;;;;11.63;77.52;95706.70;1787496;80;21028;-60
2021/06/09 01:50:40;;;;;;;4.90;3.50;;;;;;;11.62;78.66;95702.33;1787699;80;21032;-60
2021/06/09 01:53:08;;;;;;;5.67;4.07;;;;;;;11.63;77.98;95709.34;1788017;80;21020;-60
2021/06/09 01:55:37;;;;;;;7.17;3.93;;;;;;;11.62;78.32;95702.33;1787642;80;21002;-59
2021/06/09 01:58:07;;;;;;;7.40;4.47;;;;;;;11.65;78.50;95699.61;1787719;80;21017;-60
2021/06/09 02:00:45;;;;;;;5.13;3.80;;;;;;;11.66;78.90;95697.84;1787789;80;21535;-60
2021/06/09 02:03:16;;;;;;;5.60;3.90;;;;;;;11.67;78.82;95695.63;1787395;80;21503;-60
2021/06/09 02:05:44;;;;;;;5.33;4.07;;;;;;;11.65;78.35;95698.30;1787678;80;21017;-60
2021/06/09 02:08:15;;;;;;;5.23;4.00;;;;;;;11.61;78.48;95699.70;1787853;80;20997;-60
2021/06/09 02:10:44;;;;;;;6.53;4.10;;;;;;;11.65;77.79;95694.79;1787678;80;20981;-60
2021/06/09 02:13:15;;;;;;;4.53;3.20;;;;;;;11.66;78.18;95688.13;1787682;80;20981;-59
2021/06/09 02:15:45;;;;;;;6.33;3.70;;;;;;;11.63;78.21;95692.63;1787659;80;21116;-60
2021/06/09 02:18:14;;;;;;;4.80;3.90;;;;;;;11.52;78.15;95687.57;1787556;80;21467;-59
2021/06/09 02:20:53;;;;;;;4.27;3.80;;;;;;;11.48;78.15;95689.39;1787679;80;21013;-60
2021/06/09 02:23:24;;;;;;;4.60;3.90;;;;;;;11.51;77.67;95692.42;1787734;80;20984;-60
2021/06/09 02:25:56;;;;;;;5.97;3.97;;;;;;;11.46;78.25;95694.28;1787684;80;21002;-60
2021/06/09 02:28:26;;;;;;;5.53;3.63;;;;;;;11.43;77.88;95692.58;1787706;80;21017;-60
2021/06/09 02:30:53;;;;;;;6.23;3.30;;;;;;;11.36;78.50;95695.37;1787625;80;21055;-60
2021/06/09 02:33:24;;;;;;;5.87;4.30;;;;;;;11.31;78.62;95690.17;1787471;80;20997;-60
2021/06/09 02:35:53;;;;;;;6.33;4.20;;;;;;;11.30;79.36;95692.87;1787851;80;21602;-60
2021/06/09 02:38:22;;;;;;;6.67;3.77;;;;;;;11.41;79.49;95694.83;1787635;80;21479;-60
2021/06/09 02:40:53;;;;;;;4.00;3.50;;;;;;;11.42;79.34;95693.48;1787703;80;21530;-60
2021/06/09 02:43:20;;;;;;;3.93;3.57;;;;;;;11.33;79.50;95700.27;1787588;80;21056;-60
2021/06/09 02:45:51;;;;;;;6.13;4.17;;;;;;;11.38;79.34;95689.16;1787564;80;21001;-60
2021/06/09 02:48:22;;;;;;;6.30;3.80;;;;;;;11.46;79.01;95692.96;1787613;80;21506;-60
2021/06/09 02:50:49;;;;;;;6.57;4.30;;;;;;;11.47;79.09;95689.44;1787831;80;21017;-59
2021/06/09 02:53:33;;;;;;;4.93;4.23;;;;;;;11.46;78.91;95693.86;1787276;80;21546;-60
2021/06/09 02:56:29;;;;;;;6.22;5.00;;;;;;;11.46;78.80;95691.22;1787897;80;20997;-60
2021/06/09 02:59:18;;;;;;;5.07;4.27;;;;;;;11.45;78.58;95697.38;1787337;80;21522;-59
2021/06/09 03:02:08;;;;;;;6.77;4.83;;;;;;;11.42;78.47;95693.48;1757173;80;21056;-60
2021/06/09 03:04:54;;;;;;;3.97;3.47;;;;;;;11.39;78.42;95691.34;1786377;80;21017;-59
2021/06/09 03:07:49;;;;;;;5.13;3.40;;;;;;;11.33;79.37;95692.34;1787585;80;21053;-60
2021/06/09 03:10:42;;;;;;;6.97;4.43;;;;;;;11.21;80.14;95688.20;1787588;80;21073;-60
2021/06/09 03:13:40;;;;;;;9.00;3.53;;;;;;;11.15;80.04;95684.33;1787524;80;21009;-60
2021/06/09 03:16:06;;;;;;;4.83;3.83;;;;;;;11.10;79.69;95686.65;1742601;80;20954;-59
2021/06/09 03:18:43;;;;;;;8.27;4.63;;;;;;;11.10;80.90;95690.16;1787018;80;21073;-59
2021/06/09 03:21:21;;;;;;;9.23;4.83;;;;;;;11.17;80.41;95689.59;1787540;80;21037;-60
2021/06/09 03:24:09;;;;;;;8.33;4.53;;;;;;;11.30;79.96;95680.98;1786875;80;21053;-59
2021/06/09 03:26:53;;;;;;;6.30;4.47;;;;;;;11.36;79.86;95687.45;1787354;80;21010;-59
2021/06/09 03:29:50;;;;;;;6.43;4.50;;;;;;;11.46;79.56;95678.00;1787652;80;21057;-60
2021/06/09 03:32:30;;;;;;;6.27;4.50;;;;;;;11.63;79.17;95676.30;1787769;80;21438;-60
2021/06/09 03:35:08;;;;;;;7.43;4.67;;;;;;;11.68;79.08;95675.75;1787407;80;21073;-60
2021/06/09 03:37:42;;;;;;;6.60;4.57;;;;;;;11.72;79.60;95682.29;1787619;80;21012;-60
2021/06/09 03:40:16;;;;;;;7.73;4.43;;;;;;;11.73;79.49;95677.44;1757241;80;21483;-61
2021/06/09 03:42:50;;;;;;;9.70;4.57;;;;;;;11.63;79.95;95689.52;1787560;80;21045;-60
2021/06/09 03:45:18;;;;;;;5.80;4.80;;;;;;;11.67;79.95;95682.41;1787706;80;20970;-59
2021/06/09 03:47:46;;;;;;;4.50;3.80;;;;;;;11.78;80.18;95682.17;1787378;80;21019;-60
2021/06/09 03:50:16;;;;;;;5.53;3.60;;;;;;;11.98;79.97;95689.23;1787549;80;21044;-60
2021/06/09 03:52:46;;;;;;;7.10;5.00;;;;;;;12.11;80.00;95685.86;1787608;80;21526;-60
2021/06/09 03:55:15;;;;;;;6.53;4.93;;;;;;;12.26;80.10;95678.02;1787648;80;21029;-60
2021/06/09 03:57:43;;;;;;;6.47;4.67;;;;;;;12.41;79.49;95676.79;1787677;80;20982;-60
2021/06/09 04:00:10;;;;;;;11.20;4.97;;;;;;;12.56;78.90;95681.70;1787755;80;21535;-60
2021/06/09 04:02:41;;;;;;;9.83;6.00;;;;;;;12.71;78.30;95676.48;1787714;80;20993;-59
2021/06/09 04:05:10;;;;;;;11.03;5.80;;;;;;;12.86;77.79;95672.56;1787491;80;21049;-60
2021/06/09 04:07:38;;;;;;;8.47;6.30;;;;;;;12.97;77.46;95670.02;1787785;80;21470;-60
2021/06/09 04:10:07;;;;;;;9.87;6.00;;;;;;;13.09;77.08;95671.48;1787468;80;21017;-60
2021/06/09 04:12:35;;;;;;;10.00;6.67;;;;;;;13.23;77.03;95669.80;1787808;80;20993;-60
2021/06/09 04:15:03;;;;;;;11.07;7.23;;;;;;;13.37;76.70;95670.75;1782624;80;20944;-60
2021/06/09 04:17:32;;;;;;;13.53;5.47;;;;;;;13.45;76.52;95670.08;1787285;80;21026;-60
2021/06/09 04:20:05;;;;;;;9.27;6.10;;;;;;;13.53;76.15;95665.88;1787518;80;21455;-60
2021/06/09 04:22:33;;;;;;;8.13;6.10;;;;;;;13.63;76.09;95661.61;1787440;80;21018;-60
2021/06/09 04:25:02;;;;;;;10.20;6.30;;;;;;;13.73;75.75;95668.81;1787561;80;21005;-60
2021/06/09 04:27:33;;;;;;;9.67;6.60;;;;;;;13.82;75.72;95669.87;1787583;80;21040;-60
2021/06/09 04:30:00;;;;;;;11.70;6.23;;;;;;;13.92;75.44;95669.14;1787706;80;21005;-60
2021/06/09 04:32:27;;;;;;;7.93;6.40;;;;;;;14.00;75.40;95670.23;1787602;80;21033;-60
2021/06/09 04:35:00;;;;;;;19.50;7.17;;;;;;;14.08;75.41;95673.50;1787486;80;21001;-60
2021/06/09 04:37:29;;;;;;;9.58;6.15;;;;;;;14.12;75.42;95665.01;1787735;80;20966;-62
2021/06/09 04:39:55;;;;;;;7.17;5.80;;;;;;;14.20;75.39;95665.63;1788190;80;20989;-60
2021/06/09 04:42:22;;;;;;;10.53;5.90;;;;;;;14.25;75.10;95667.22;1788059;80;21532;-60
2021/06/09 04:44:49;;;;;;;10.37;6.50;;;;;;;14.34;75.12;95664.74;1787306;80;21013;-60
2021/06/09 04:47:16;;;;;;;10.00;6.37;;;;;;;14.44;74.78;95660.01;1787750;80;21357;-60
2021/06/09 04:49:46;;;;;;;9.47;6.80;;;;;;;14.53;74.97;95662.38;1787571;80;21045;-60
2021/06/09 04:52:14;;;;;;;13.30;6.33;;;;;;;14.65;74.45;95661.97;1787738;80;20974;-60
2021/06/09 04:54:41;;;;;;;12.93;6.27;;;;;;;14.77;74.62;95659.84;1787806;80;21057;-60
2021/06/09 04:57:09;;;;;;;12.43;6.00;;;;;;;14.87;74.09;95668.76;1787544;80;21490;-60
2021/06/09 04:59:35;;;;;;;14.57;6.07;;;;;;;14.98;73.15;95667.05;1787782;80;20974;-60
2021/06/09 05:02:03;;;;;;;15.67;5.70;;;;;;;15.09;72.99;95665.34;1787688;80;21478;-59
2021/06/09 05:04:30;;;;;;;14.57;6.17;;;;;;;15.25;72.89;95665.69;1787907;80;21494;-61
2021/06/09 05:06:56;;;;;;;10.57;5.20;;;;;;;15.41;72.44;95663.34;1787707;80;21049;-62
2021/06/09 05:09:24;;;;;;;8.70;5.60;;;;;;;15.55;72.19;95664.57;1787496;80;21582;-64
2021/06/09 05:12:02;;;;;;;7.43;5.10;;;;;;;15.72;71.79;95668.41;1787516;80;21021;-60
2021/06/09 05:14:55;;;;;;;7.43;5.50;;;;;;;15.84;71.39;95665.76;1787744;80;20989;-62
2021/06/09 05:17:30;;;;;;;9.63;4.65;;;;;;;15.98;71.02;95666.97;1787944;80;21033;-62
2021/06/09 05:19:59;;;;;;;6.33;5.60;;;;;;;16.16;70.46;95664.52;1786882;80;20990;-62
2021/06/09 05:22:46;;;;;;;9.83;5.50;;;;;;;16.30;69.34;95663.48;1797735;79;21488;-61
2021/06/09 05:25:15;;;;;;;6.83;5.43;;;;;;;16.44;69.58;95662.95;1800054;79;21492;-61
2021/06/09 05:27:44;;;;;;;7.27;5.10;;;;;;;16.60;68.78;95669.84;1764070;80;21067;-62
2021/06/09 05:30:15;;;;;;;6.73;5.50;;;;;;;16.74;68.53;95655.97;1757135;81;21011;-62
2021/06/09 05:32:42;;;;;;;8.03;5.45;;;;;;;16.90;68.72;95658.41;1757233;81;21042;-61
2021/06/09 05:35:11;;;;;;;9.83;5.07;;;;;;;17.05;68.10;95655.08;1746969;81;20940;-61
2021/06/09 05:37:39;;;;;;;6.47;4.65;;;;;;;17.21;68.24;95655.30;1761036;80;21086;-61
2021/06/09 05:40:09;;;;;;;10.65;5.62;;;;;;;17.39;67.79;95658.09;1792112;79;21429;-62
2021/06/09 05:42:38;;;;;;;6.00;5.25;;;;;;;17.53;66.92;95662.33;1755622;81;21031;-61
2021/06/09 05:45:06;;;;;;;7.22;4.35;;;;;;;17.69;66.13;95657.19;1749200;82;21450;-62
2021/06/09 05:47:43;;;;;;;7.85;4.53;;;;;;;17.86;65.95;95662.63;1749812;81;21070;-63
2021/06/09 05:50:17;;;;;;;8.15;4.78;;;;;;;17.99;64.25;95656.72;1779810;81;21500;-66
2021/06/09 05:52:46;;;;;;;9.33;4.67;;;;;;;18.15;64.88;95659.94;1774593;81;21564;-64
2021/06/09 05:55:20;;;;;;;7.08;4.40;;;;;;;18.33;64.41;95653.33;1746227;82;20952;-64
2021/06/09 05:57:48;;;;;;;7.67;4.33;;;;;;;18.52;63.51;95659.52;1755301;82;21050;-64
2021/06/09 06:00:18;;;;;;;17.05;4.60;;;;;;;18.64;63.01;95648.67;1779943;81;20997;-63
2021/06/09 06:02:48;;;;;;;6.25;4.55;;;;;;;18.75;62.94;95649.50;1746196;82;21032;-64
2021/06/09 06:05:17;;;;;;;6.67;4.42;;;;;;;18.87;61.51;95652.91;1754693;82;21047;-65
2021/06/09 06:07:44;;;;;;;8.40;4.50;;;;;;;18.92;60.38;95653.53;1779080;81;21078;-64
2021/06/09 06:10:13;;;;;;;9.73;4.70;;;;;;;19.03;60.45;95658.36;1745289;82;21047;-63
2021/06/09 06:12:41;;;;;;;7.17;4.83;;;;;;;19.17;59.70;95648.28;1754970;82;21018;-62
2021/06/09 06:15:12;;;;;;;6.10;4.78;;;;;;;19.30;59.41;95652.52;1779532;81;20983;-63
2021/06/09 06:17:45;;;;;;;5.92;4.72;;;;;;;19.46;60.07;95648.11;1779775;81;21118;-64
2021/06/09 06:20:21;;;;;;;5.83;4.83;;;;;;;19.60;59.86;95648.22;1746200;82;21570;-62
2021/06/09 06:22:51;;;;;;;7.95;4.65;;;;;;;19.73;59.60;95649.84;1757583;81;21586;-65
2021/06/09 06:25:22;;;;;;;5.03;4.35;;;;;;;19.85;57.83;95653.16;1742371;80;21070;-66
2021/06/09 06:27:53;;;;;;;7.95;4.42;;;;;;;19.92;56.27;95655.04;1729735;83;21049;-66
2021/06/09 06:30:23;;;;;;;6.92;4.70;;;;;;;20.04;57.32;95649.50;1769220;81;21050;-67
2021/06/09 06:32:57;;;;;;;8.13;4.42;;;;;;;20.16;56.96;95648.82;1769374;81;21623;-64
2021/06/09 06:35:26;;;;;;;4.90;4.50;;;;;;;20.29;54.92;95651.68;1769077;81;21031;-65
2021/06/09 06:37:53;;;;;;;4.90;4.35;;;;;;;20.36;53.97;95649.05;1768826;81;21011;-65
2021/06/09 06:40:27;;;;;;;7.12;4.60;;;;;;;20.44;53.80;95651.30;1748309;81;20931;-66
2021/06/09 06:42:56;;;;;;;5.80;4.70;;;;;;;20.54;54.17;95656.52;1740485;82;21060;-66
2021/06/09 06:45:24;;;;;;;14.35;5.00;;;;;;;20.64;53.72;95645.69;1749340;80;21109;-68
2021/06/09 06:47:53;;;;;;;6.58;4.97;;;;;;;20.74;53.59;95649.56;1751310;82;21131;-68
2021/06/09 06:50:22;;;;;;;9.58;4.90;;;;;;;20.86;53.98;95651.99;1765688;80;21505;-68
2021/06/09 06:52:51;;;;;;;8.13;4.97;;;;;;;20.91;53.26;95649.05;1782164;80;21029;-68
2021/06/09 06:55:21;;;;;;;8.95;5.50;;;;;;;21.00;52.97;95651.69;1782468;80;21036;-67
2021/06/09 06:57:50;;;;;;;9.78;5.10;;;;;;;21.08;52.00;95648.06;1782436;80;21554;-69
2021/06/09 07:00:23;;;;;;;9.73;5.90;;;;;;;21.13;51.57;95646.83;1768219;80;21017;-67
2021/06/09 07:02:56;;;;;;;8.53;5.83;;;;;;;21.23;51.73;95652.52;1760191;80;20998;-67
2021/06/09 07:05:27;;;;;;;10.70;5.35;;;;;;;21.37;51.58;95649.87;1751689;82;21021;-67
2021/06/09 07:07:57;;;;;;;9.03;4.70;;;;;;;21.51;50.62;95650.88;1752279;82;21574;-67
2021/06/09 07:10:26;;;;;;;8.98;5.90;;;;;;;21.58;46.25;95645.05;1752061;82;21056;-67
2021/06/09 07:12:58;;;;;;;11.53;5.72;;;;;;;21.65;46.90;95643.34;1752010;82;21009;-67
2021/06/09 07:15:26;;;;;;;9.00;5.15;;;;;;;21.76;49.00;95643.53;1752144;82;21100;-67
2021/06/09 07:17:57;;;;;;;6.40;4.70;;;;;;;21.89;47.25;95640.94;1751799;82;20989;-69
2021/06/09 07:20:26;;;;;;;6.97;4.45;;;;;;;22.10;46.54;95634.68;1752001;82;21622;-65
2021/06/09 07:22:55;;;;;;;8.60;5.15;;;;;;;22.10;46.54;95634.68;1752003;82;20962;-67
2021/06/09 07:25:25;;;;;;;6.20;4.40;;;;;;;22.20;46.76;95630.02;1752263;82;21012;-71
2021/06/09 07:27:56;;;;;;;7.15;4.60;;;;;;;22.29;42.15;95637.11;1752001;82;21033;-65
2021/06/09 07:30:28;;;;;;;6.80;4.50;;;;;;;22.36;44.43;95634.41;1752115;82;21081;-66
2021/06/09 07:32:55;;;;;;;6.75;4.22;;;;;;;22.43;43.72;95629.88;1766096;80;21045;-69
2021/06/09 07:35:22;;;;;;;8.65;4.50;;;;;;;22.52;45.86;95640.50;1782762;80;21037;-69
2021/06/09 07:37:57;;;;;;;9.90;4.58;;;;;;;22.60;44.97;95643.58;1782875;80;21494;-69
2021/06/09 07:40:32;;;;;;;7.28;4.80;;;;;;;22.59;43.60;95627.04;1781577;80;21062;-65
2021/06/09 07:43:10;;;;;;;5.05;4.37;;;;;;;22.80;44.86;95638.69;1781161;80;21472;-69
2021/06/09 07:45:39;;;;;;;9.60;4.58;;;;;;;22.80;44.86;95638.69;1756738;80;20982;-65
2021/06/09 07:48:09;;;;;;;8.40;4.55;;;;;;;22.93;44.45;95636.93;1756257;81;20958;-65
2021/06/09 07:50:43;;;;;;;5.83;4.90;;;;;;;23.04;44.66;95644.31;1749519;81;21021;-66
2021/06/09 07:53:11;;;;;;;8.15;4.75;;;;;;;23.12;43.83;95643.30;1740811;82;20994;-66
2021/06/09 07:55:45;;;;;;;5.78;4.58;;;;;;;23.18;43.40;95646.91;1741081;82;21018;-65
2021/06/09 07:58:15;;;;;;;7.35;4.45;;;;;;;23.27;43.88;95646.78;1741277;82;21029;-65
2021/06/09 08:00:43;;;;;;;7.55;4.70;;;;;;;23.41;44.05;95645.83;1750540;81;20977;-64
2021/06/09 08:03:10;;;;;;;4.75;4.35;;;;;;;23.57;44.75;95647.00;1758919;81;21038;-64
2021/06/09 08:05:40;;;;;;;4.78;4.37;;;;;;;23.71;44.73;95648.23;1741046;81;21045;-65
2021/06/09 08:08:11;;;;;;;6.67;4.72;;;;;;;23.78;45.06;95641.97;1755597;81;20970;-64
2021/06/09 08:10:40;;;;;;;5.15;4.55;;;;;;;23.91;44.66;95650.91;1761378;81;21007;-64
2021/06/09 08:13:09;;;;;;;5.95;4.65;;;;;;;23.79;43.63;95654.00;1771776;81;21010;-63
2021/06/09 08:15:37;;;;;;;6.25;4.60;;;;;;;23.62;43.80;95656.48;1772020;81;21471;-64
2021/06/09 08:18:04;;;;;;;9.15;5.10;;;;;;;23.38;44.44;95656.81;1771500;81;21033;-65
2021/06/09 08:20:31;;;;;;;7.20;4.75;;;;;;;23.13;45.32;95661.66;1771706;81;21002;-66
2021/06/09 08:22:58;;;;;;;5.08;4.50;;;;;;;22.93;45.82;95655.77;1771461;81;21026;-67
2021/06/09 08:25:24;;;;;;;8.35;4.75;;;;;;;22.68;46.30;95656.52;1739559;82;21527;-64
2021/06/09 08:27:54;;;;;;;8.13;4.72;;;;;;;22.49;48.02;95651.95;1769732;81;20990;-65
2021/06/09 08:30:22;;;;;;;5.53;5.03;;;;;;;22.31;48.78;95660.23;1771719;81;21041;-67
2021/06/09 08:32:50;;;;;;;14.93;5.58;;;;;;;22.16;49.68;95660.70;1771691;80;21038;-68
2021/06/09 08:35:17;;;;;;;6.80;4.83;;;;;;;21.91;51.11;95663.20;1754560;81;21053;-67
2021/06/09 08:37:44;;;;;;;7.12;4.72;;;;;;;21.76;51.28;95663.67;1753236;81;20998;-65
2021/06/09 08:40:12;;;;;;;11.70;8.43;;;;;;;21.63;52.44;95663.56;1741669;82;21430;-66
2021/06/09 08:42:42;;;;;;;11.65;5.00;;;;;;;21.56;53.75;95666.23;1741217;82;20983;-68
2021/06/09 08:45:12;;;;;;;9.40;4.80;;;;;;;21.48;54.32;95666.70;1741192;82;20990;-67
2021/06/09 08:47:40;;;;;;;7.87;5.25;;;;;;;21.37;55.53;95671.83;1741536;82;21074;-66
2021/06/09 08:50:11;;;;;;;5.53;4.78;;;;;;;21.27;56.66;95670.17;1745850;81;21424;-65
2021/06/09 08:52:45;;;;;;;7.67;4.60;;;;;;;21.16;54.80;95669.93;1741304;82;21061;-66
2021/06/09 08:55:12;;;;;;;6.22;5.12;;;;;;;21.14;54.60;95683.45;1741473;82;21029;-65
2021/06/09 08:57:40;;;;;;;7.67;4.87;;;;;;;21.18;54.19;95677.41;1740918;82;21034;-66
2021/06/09 09:00:08;;;;;;;7.28;5.17;;;;;;;21.21;57.50;95677.23;1741143;82;21037;-66
2021/06/09 09:02:35;;;;;;;5.87;4.83;;;;;;;21.25;56.75;95682.81;1741218;82;21014;-66
2021/06/09 09:05:03;;;;;;;6.65;5.25;;;;;;;21.29;55.17;95674.09;1741137;82;21000;-67
2021/06/09 09:07:30;;;;;;;6.97;5.40;;;;;;;21.38;54.76;95675.78;1741433;82;21006;-67
2021/06/09 09:09:58;;;;;;;7.12;5.15;;;;;;;21.48;54.10;95673.41;1741383;82;21439;-67
2021/06/09 09:12:25;;;;;;;5.58;5.08;;;;;;;21.54;54.91;95678.39;1740501;82;21101;-67
2021/06/09 09:14:52;;;;;;;5.95;5.35;;;;;;;21.61;54.30;95680.23;1740437;82;21508;-67
2021/06/09 09:17:19;;;;;;;5.92;5.25;;;;;;;21.56;53.35;95664.41;1740537;82;21016;-67
2021/06/09 09:19:46;;;;;;;11.88;5.20;;;;;;;21.70;53.40;95681.03;1740290;82;21089;-67
2021/06/09 09:22:32;;;;;;;8.55;5.55;;;;;;;21.77;53.57;95680.16;1740120;82;21073;-67
2021/06/09 09:24:59;;;;;;;6.42;5.42;;;;;;;21.81;53.80;95673.65;1740575;82;20950;-67
2021/06/09 09:27:30;;;;;;;6.28;5.47;;;;;;;21.83;53.16;95675.77;1741270;82;21010;-67
2021/06/09 09:30:13;;;;;;;6.40;5.65;;;;;;;21.84;52.63;95677.48;1741259;82;20970;-67
2021/06/09 09:33:00;;;;;;;7.17;5.35;;;;;;;21.88;52.60;95670.97;1741248;82;21006;-67
2021/06/09 09:35:32;;;;;;;6.95;5.72;;;;;;;21.94;52.26;95677.30;1741244;82;21033;-67
2021/06/09 09:38:28;;;;;;;9.30;5.50;;;;;;;21.96;52.15;95675.38;1741138;82;20990;-66
2021/06/09 09:41:06;;;;;;;9.10;5.30;;;;;;;21.94;52.24;95675.95;1741246;82;21073;-66
2021/06/09 09:43:50;;;;;;;7.50;5.22;;;;;;;21.99;52.79;95677.02;1741278;82;21069;-67
2021/06/09 09:46:32;;;;;;;5.87;5.03;;;;;;;21.98;52.71;95676.64;1739012;82;21002;-67
2021/06/09 09:49:15;;;;;;;6.87;4.95;;;;;;;22.06;53.82;95676.16;1741310;82;21002;-67
2021/06/09 09:51:51;;;;;;;5.15;4.65;;;;;;;22.23;52.77;95675.51;1741290;82;21017;-67
2021/06/09 09:54:36;;;;;;;5.00;4.03;;;;;;;22.30;51.94;95671.96;1741403;82;21055;-67
2021/06/09 09:57:07;;;;;;;4.20;3.80;;;;;;;22.36;48.24;95663.98;1741392;82;21575;-66
2021/06/09 09:59:35;;;;;;;4.58;4.10;;;;;;;22.37;47.21;95658.48;1741403;82;21049;-66
2021/06/09 10:02:04;;;;;;;4.12;3.75;;;;;;;22.77;48.27;95662.62;1740898;82;20991;-67
2021/06/09 10:04:35;;;;;;;3.80;3.00;;;;;;;23.35;46.80;95660.58;1726205;81;21046;-67
2021/06/09 10:07:03;;;;;;;3.58;3.10;;;;;;;23.67;44.53;95656.16;1771639;81;21060;-66
2021/06/09 10:09:42;;;;;;;3.80;3.50;;;;;;;24.05;40.73;95653.49;1741614;81;21022;-67
2021/06/09 10:12:15;;;;;;;6.00;3.75;;;;;;;24.51;41.06;95646.65;1771780;81;21101;-67
2021/06/09 10:14:47;;;;;;;4.70;4.22;;;;;;;25.08;41.48;95639.75;1771270;81;21018;-66
2021/06/09 10:17:23;;;;;;;6.12;4.35;;;;;;;25.60;40.62;95632.59;1772196;80;21037;-67
2021/06/09 10:19:54;;;;;;;4.75;4.30;;;;;;;26.02;41.85;95636.97;1771498;81;21512;-67
2021/06/09 10:22:27;;;;;;;4.40;4.00;;;;;;;26.42;38.53;95634.28;1771512;80;21006;-67
2021/06/09 10:25:01;;;;;;;4.35;3.95;;;;;;;26.78;38.14;95627.72;1771848;81;21086;-67
2021/06/09 10:27:51;;;;;;;5.95;3.90;;;;;;;27.00;35.41;95629.52;1771953;80;20975;-67
2021/06/09 10:30:25;;;;;;;4.70;4.25;;;;;;;27.15;36.89;95632.28;1771346;81;21045;-67
2021/06/09 10:33:01;;;;;;;4.00;3.70;;;;;;;27.21;37.16;95632.29;1771518;81;21049;-67
2021/06/09 10:35:42;;;;;;;5.60;3.83;;;;;;;27.41;37.29;95627.39;1771536;81;20955;-69
2021/06/09 10:38:09;;;;;;;4.62;4.20;;;;;;;27.79;36.75;95627.80;1771835;81;21066;-67
2021/06/09 10:40:36;;;;;;;6.72;4.47;;;;;;;27.97;34.75;95625.37;1771806;81;21010;-67
2021/06/09 10:43:05;;;;;;;6.83;4.60;;;;;;;28.08;35.49;95632.08;1771561;81;20990;-67
2021/06/09 10:45:35;;;;;;;5.08;4.65;;;;;;;28.17;34.43;95619.55;1771754;80;21014;-67
2021/06/09 10:48:04;;;;;;;4.37;3.90;;;;;;;28.24;33.89;95620.22;1771711;81;21076;-67
2021/06/09 10:50:31;;;;;;;7.08;4.30;;;;;;;28.48;34.71;95609.58;1771671;81;21017;-69
2021/06/09 10:52:58;;;;;;;4.70;4.30;;;;;;;28.44;34.40;95607.62;1771571;81;21492;-67
2021/06/09 10:55:25;;;;;;;4.28;3.87;;;;;;;28.67;34.05;95600.62;1771489;81;21018;-67
2021/06/09 10:57:52;;;;;;;4.95;4.08;;;;;;;28.85;33.60;95594.89;1771398;81;21038;-67
2021/06/09 11:00:20;;;;;;;5.50;4.22;;;;;;;28.60;32.04;95605.77;1771646;81;21054;-67
2021/06/09 11:02:49;;;;;;;6.03;4.30;;;;;;;28.03;32.92;95601.29;1771588;81;21057;-67
2021/06/09 11:05:16;;;;;;;5.55;4.28;;;;;;;27.55;36.37;95605.05;1771666;80;20963;-66
2021/06/09 11:07:46;;;;;;;5.40;3.50;;;;;;;27.68;36.87;95601.63;1771715;80;21555;-65
2021/06/09 11:10:29;;;;;;;6.58;4.03;;;;;;;27.98;34.17;95591.34;1771672;81;21014;-65
2021/06/09 11:12:58;;;;;;;4.53;4.00;;;;;;;28.07;34.54;95586.95;1770143;81;21014;-65
2021/06/09 11:15:32;;;;;;;12.43;4.00;;;;;;;28.16;29.73;95582.07;1771847;80;20998;-65
2021/06/09 11:17:58;;;;;;;4.35;3.72;;;;;;;28.25;31.66;95577.70;1771316;81;21022;-65
2021/06/09 11:20:38;;;;;;;8.23;4.05;;;;;;;28.40;31.28;95581.74;1771924;81;21471;-65
2021/06/09 11:23:21;;;;;;;6.50;3.70;;;;;;;28.43;34.68;95575.18;1771706;80;21030;-67
2021/06/09 11:25:49;;;;;;;4.85;4.35;;;;;;;28.52;32.25;95572.16;1770696;81;21013;-66
2021/06/09 11:28:19;;;;;;;5.45;3.92;;;;;;;28.58;33.36;95579.75;1771675;81;21010;-66
2021/06/09 11:31:03;;;;;;;4.50;3.98;;;;;;;28.54;33.96;95575.59;1771751;81;20998;-66
2021/06/09 11:33:44;;;;;;;4.67;3.47;;;;;;;28.52;33.66;95574.36;1771602;81;21010;-66
2021/06/09 11:36:25;;;;;;;3.87;3.58;;;;;;;28.68;34.30;95571.98;1771707;81;21594;-66
2021/06/09 11:38:58;;;;;;;6.28;4.10;;;;;;;28.96;34.76;95568.09;1771867;81;21106;-66
2021/06/09 11:41:39;;;;;;;7.95;5.08;;;;;;;28.91;30.80;95571.73;1771757;81;21467;-66
2021/06/09 11:44:08;;;;;;;7.47;4.20;;;;;;;28.45;30.54;95575.44;1771798;81;21018;-66
2021/06/09 11:46:39;;;;;;;5.67;3.70;;;;;;;27.84;31.02;95582.20;1780104;80;21081;-66
2021/06/09 11:49:12;;;;;;;5.60;3.80;;;;;;;27.29;31.29;95584.23;1783330;80;21467;-66
2021/06/09 11:51:46;;;;;;;4.25;3.85;;;;;;;27.49;31.40;95584.73;1782949;80;21045;-66